createdAt,value
2019-05-22T00:02:02.179Z,12.00
2019-05-22T00:04:29.827Z,11.90
2019-05-22T00:06:57.397Z,11.90
2019-05-22T00:09:25.852Z,11.80
2019-05-22T00:11:53.632Z,11.80
2019-05-22T00:14:21.210Z,11.70
2019-05-22T00:16:48.743Z,11.70
2019-05-22T00:19:16.306Z,11.70
2019-05-22T00:21:43.967Z,11.60
2019-05-22T00:24:11.509Z,11.60
2019-05-22T00:26:39.072Z,11.50
2019-05-22T00:29:06.612Z,11.40
2019-05-22T00:31:34.171Z,11.40
2019-05-22T00:34:01.711Z,11.30
2019-05-22T00:36:29.293Z,11.30
2019-05-22T00:38:56.910Z,11.30
2019-05-22T00:41:24.510Z,11.30
2019-05-22T00:43:52.067Z,11.20
2019-05-22T00:46:19.719Z,11.20
2019-05-22T00:48:47.294Z,11.10
2019-05-22T00:54:23.888Z,11.10
2019-05-22T00:56:57.049Z,11.10
2019-05-22T00:59:24.599Z,11.10
2019-05-22T01:01:52.175Z,11.10
2019-05-22T01:04:19.719Z,11.10
2019-05-22T01:06:47.591Z,11.00
2019-05-22T01:09:17.798Z,11.00
2019-05-22T01:11:45.380Z,11.00
2019-05-22T01:14:12.950Z,10.90
2019-05-22T01:16:40.495Z,10.90
2019-05-22T01:19:08.034Z,11.00
2019-05-22T01:21:35.604Z,11.00
2019-05-22T01:24:03.145Z,11.00
2019-05-22T01:26:30.719Z,10.90
2019-05-22T01:28:58.251Z,10.90
2019-05-22T01:31:27.623Z,10.90
2019-05-22T01:33:55.163Z,10.90
2019-05-22T01:36:23.284Z,10.90
2019-05-22T01:38:51.612Z,10.80
2019-05-22T01:41:28.316Z,10.80
2019-05-22T01:43:56.655Z,10.80
2019-05-22T01:46:24.204Z,10.80
2019-05-22T01:48:51.768Z,10.80
2019-05-22T01:51:19.311Z,10.80
2019-05-22T01:53:46.877Z,10.80
2019-05-22T01:56:14.449Z,10.80
2019-05-22T01:58:42.019Z,10.80
2019-05-22T02:01:10.468Z,10.70
2019-05-22T02:03:38.037Z,10.70
2019-05-22T02:06:05.962Z,10.70
2019-05-22T02:08:33.571Z,10.70
2019-05-22T02:11:01.143Z,10.70
2019-05-22T02:13:29.431Z,10.70
2019-05-22T02:15:56.996Z,10.70
2019-05-22T02:18:25.302Z,10.70
2019-05-22T02:20:52.875Z,10.60
2019-05-22T02:23:20.414Z,10.50
2019-05-22T02:25:47.984Z,10.50
2019-05-22T02:28:15.545Z,10.60
2019-05-22T02:30:43.127Z,10.50
2019-05-22T02:33:10.672Z,10.50
2019-05-22T02:35:38.221Z,10.50
2019-05-22T02:38:05.876Z,10.60
2019-05-22T02:40:33.450Z,10.50
2019-05-22T02:43:01.015Z,10.50
2019-05-22T02:45:28.556Z,10.50
2019-05-22T02:47:56.130Z,10.50
2019-05-22T02:50:23.669Z,10.40
2019-05-22T02:52:51.253Z,10.40
2019-05-22T02:55:18.805Z,10.40
2019-05-22T02:57:46.348Z,10.40
2019-05-22T03:00:13.932Z,10.40
2019-05-22T03:02:51.750Z,10.40
2019-05-22T03:05:19.322Z,10.30
2019-05-22T03:07:46.902Z,10.30
2019-05-22T03:10:14.448Z,10.20
2019-05-22T03:12:42.011Z,10.20
2019-05-22T03:15:09.560Z,10.10
2019-05-22T03:17:37.119Z,10.10
2019-05-22T03:20:05.406Z,10.00
2019-05-22T03:22:35.518Z,10.00
2019-05-22T03:25:03.080Z,9.90
2019-05-22T03:27:39.579Z,9.90
2019-05-22T03:30:08.820Z,9.90
2019-05-22T03:32:43.114Z,9.80
2019-05-22T03:35:03.939Z,9.80
2019-05-22T03:37:31.504Z,9.80
2019-05-22T03:39:59.047Z,9.70
2019-05-22T03:42:26.610Z,9.70
2019-05-22T03:44:54.156Z,9.60
2019-05-22T03:47:21.721Z,9.50
2019-05-22T03:49:49.364Z,9.50
2019-05-22T03:52:16.931Z,9.50
2019-05-22T03:54:44.475Z,9.40
2019-05-22T03:57:12.046Z,9.40
2019-05-22T03:59:39.581Z,9.30
2019-05-22T04:02:07.904Z,9.30
2019-05-22T04:04:35.459Z,9.20
2019-05-22T04:07:03.039Z,9.20
2019-05-22T04:09:30.582Z,9.20
2019-05-22T04:14:25.196Z,9.10
2019-05-22T04:16:52.743Z,9.10
2019-05-22T04:19:20.308Z,9.00
2019-05-22T04:21:47.859Z,9.00
2019-05-22T04:24:15.395Z,9.10
2019-05-22T04:26:43.941Z,9.20
2019-05-22T04:29:11.484Z,9.20
2019-05-22T04:31:45.523Z,9.20
2019-05-22T04:34:13.091Z,9.10
2019-05-22T04:36:40.630Z,9.20
2019-05-22T04:39:08.220Z,9.20
2019-05-22T04:41:35.756Z,9.10
2019-05-22T04:44:03.313Z,9.10
2019-05-22T04:46:30.863Z,9.20
2019-05-22T04:48:58.424Z,9.20
2019-05-22T04:51:26.066Z,9.20
2019-05-22T04:53:53.585Z,9.20
2019-05-22T04:56:21.132Z,9.30
2019-05-22T04:58:49.053Z,9.30
2019-05-22T05:01:16.595Z,9.40
2019-05-22T05:03:44.160Z,9.50
2019-05-22T05:06:12.490Z,9.40
2019-05-22T05:08:40.023Z,9.40
2019-05-22T05:11:07.598Z,9.40
2019-05-22T05:13:35.144Z,9.50
2019-05-22T05:16:02.744Z,9.50
2019-05-22T05:18:30.275Z,9.50
2019-05-22T05:20:57.836Z,9.60
2019-05-22T05:23:25.394Z,9.70
2019-05-22T05:25:52.947Z,9.90
2019-05-22T05:28:20.507Z,9.90
2019-05-22T05:30:48.038Z,10.00
2019-05-22T05:33:15.599Z,10.10
2019-05-22T05:35:43.180Z,10.20
2019-05-22T05:38:10.741Z,10.30
2019-05-22T05:40:39.251Z,10.50
2019-05-22T05:43:06.735Z,10.60
2019-05-22T05:45:34.308Z,10.70
2019-05-22T05:48:01.891Z,10.90
2019-05-22T05:50:38.951Z,11.00
2019-05-22T05:52:57.818Z,11.30
2019-05-22T05:55:25.364Z,11.20
2019-05-22T06:01:18.388Z,11.20
2019-05-22T06:03:45.963Z,11.30
2019-05-22T06:09:13.347Z,11.60
2019-05-22T06:11:40.909Z,11.80
2019-05-22T06:14:08.463Z,11.90
2019-05-22T06:19:53.522Z,12.20
2019-05-22T06:22:21.068Z,12.30
2019-05-22T06:24:58.828Z,12.60
2019-05-22T06:27:29.290Z,12.70
2019-05-22T06:29:56.853Z,12.80
2019-05-22T06:35:22.969Z,12.80
2019-05-22T06:37:54.363Z,12.80
2019-05-22T06:40:21.910Z,12.90
2019-05-22T06:42:57.083Z,13.20
2019-05-22T06:45:24.749Z,13.20
2019-05-22T06:47:52.311Z,13.00
2019-05-22T06:50:19.942Z,13.30
2019-05-22T06:52:48.495Z,13.50
2019-05-22T06:55:16.065Z,13.70
2019-05-22T06:57:43.604Z,13.50
2019-05-22T07:00:14.926Z,13.80
2019-05-22T07:02:40.513Z,13.80
2019-05-22T07:05:08.079Z,14.00
2019-05-22T07:07:35.661Z,14.20
2019-05-22T07:10:03.236Z,14.20
2019-05-22T07:12:30.790Z,14.30
2019-05-22T07:18:01.225Z,14.10
2019-05-22T07:20:28.816Z,14.30
2019-05-22T07:22:56.503Z,14.00
2019-05-22T07:25:24.045Z,14.10
2019-05-22T07:27:51.626Z,14.50
2019-05-22T07:30:19.171Z,14.50
2019-05-22T07:32:46.740Z,14.70
2019-05-22T07:35:14.307Z,14.60
2019-05-22T07:37:41.839Z,14.80
2019-05-22T07:40:09.628Z,15.10
2019-05-22T07:42:37.182Z,15.20
2019-05-22T07:45:04.762Z,15.10
2019-05-22T07:47:32.296Z,14.80
2019-05-22T07:49:59.857Z,14.50
2019-05-22T07:52:27.417Z,14.20
2019-05-22T07:54:54.982Z,14.50
2019-05-22T07:57:22.516Z,14.70
2019-05-22T07:59:50.070Z,14.90
2019-05-22T08:02:17.631Z,14.80
2019-05-22T08:04:45.187Z,14.90
2019-05-22T08:07:12.729Z,14.90
2019-05-22T08:09:40.288Z,14.90
2019-05-22T08:12:08.852Z,15.10
2019-05-22T08:14:36.410Z,14.60
2019-05-22T08:17:03.949Z,14.70
2019-05-22T08:19:33.231Z,15.10
2019-05-22T08:22:07.385Z,15.10
2019-05-22T08:24:28.399Z,14.80
2019-05-22T08:26:55.947Z,14.90
2019-05-22T08:29:23.510Z,14.90
2019-05-22T08:31:51.176Z,15.00
2019-05-22T08:34:18.744Z,15.00
2019-05-22T08:36:46.287Z,15.20
2019-05-22T08:39:13.841Z,15.20
2019-05-22T08:41:42.264Z,15.30
2019-05-22T08:44:16.603Z,15.40
2019-05-22T08:46:38.169Z,15.40
2019-05-22T08:49:05.754Z,15.40
2019-05-22T08:51:33.300Z,15.20
2019-05-22T08:54:00.862Z,15.40
2019-05-22T08:56:28.428Z,15.40
2019-05-22T08:58:55.957Z,15.30
2019-05-22T09:01:23.608Z,15.50
2019-05-22T09:03:51.223Z,15.50
2019-05-22T09:06:18.875Z,15.30
2019-05-22T09:08:46.398Z,15.50
2019-05-22T09:11:13.926Z,15.60
2019-05-22T09:13:41.483Z,15.50
2019-05-22T09:16:09.029Z,15.80
2019-05-22T09:18:36.595Z,16.00
2019-05-22T09:21:04.131Z,15.90
2019-05-22T09:23:31.692Z,15.50
2019-05-22T09:26:00.014Z,15.80
2019-05-22T09:28:27.563Z,15.80
2019-05-22T09:30:55.110Z,15.80
2019-05-22T09:33:22.671Z,15.70
2019-05-22T09:35:50.534Z,15.70
2019-05-22T09:38:18.158Z,15.70
2019-05-22T09:40:45.709Z,16.10
2019-05-22T09:43:14.039Z,15.70
2019-05-22T09:45:41.656Z,15.70
2019-05-22T09:48:09.216Z,16.00
2019-05-22T09:50:36.751Z,16.30
2019-05-22T09:53:05.091Z,16.90
2019-05-22T09:55:32.635Z,16.80
2019-05-22T09:58:01.194Z,16.40
2019-05-22T10:00:28.732Z,16.30
2019-05-22T10:02:57.050Z,16.30
2019-05-22T10:05:24.593Z,16.30
2019-05-22T10:08:00.538Z,16.20
2019-05-22T10:10:19.743Z,16.30
2019-05-22T10:12:47.310Z,16.30
2019-05-22T10:15:14.858Z,16.30
2019-05-22T10:17:44.220Z,16.40
2019-05-22T10:20:12.171Z,16.70
2019-05-22T10:22:39.716Z,17.00
2019-05-22T10:25:15.462Z,16.80
2019-05-22T10:27:34.899Z,16.80
2019-05-22T10:30:02.789Z,16.70
2019-05-22T10:32:32.408Z,17.20
2019-05-22T10:34:58.681Z,17.20
2019-05-22T10:37:26.242Z,17.50
2019-05-22T10:39:53.779Z,17.60
2019-05-22T10:42:21.337Z,17.70
2019-05-22T10:44:48.897Z,17.80
2019-05-22T10:47:18.634Z,18.00
2019-05-22T10:49:44.016Z,18.10
2019-05-22T10:52:11.589Z,18.20
2019-05-22T10:54:39.121Z,18.10
2019-05-22T10:57:06.679Z,18.00
2019-05-22T10:59:34.226Z,17.90
2019-05-22T11:02:01.777Z,18.30
2019-05-22T11:04:29.361Z,18.40
2019-05-22T11:06:57.072Z,18.30
2019-05-22T11:09:25.412Z,18.20
2019-05-22T11:11:52.979Z,18.20
2019-05-22T11:14:20.594Z,18.50
2019-05-22T11:16:48.120Z,18.70
2019-05-22T11:19:15.690Z,18.80
2019-05-22T11:21:43.229Z,18.50
2019-05-22T11:24:10.833Z,18.20
2019-05-22T11:26:38.471Z,18.10
2019-05-22T11:29:06.008Z,17.90
2019-05-22T11:31:34.339Z,18.30
2019-05-22T11:34:01.871Z,18.20
2019-05-22T11:36:29.442Z,17.90
2019-05-22T11:38:57.006Z,17.70
2019-05-22T11:41:24.539Z,18.30
2019-05-22T11:43:52.193Z,18.90
2019-05-22T11:46:19.755Z,18.80
2019-05-22T11:48:47.284Z,19.00
2019-05-22T11:51:14.857Z,19.00
2019-05-22T11:53:42.392Z,19.10
2019-05-22T11:56:10.696Z,19.20
2019-05-22T11:58:38.264Z,19.20
2019-05-22T12:01:05.839Z,19.40
2019-05-22T12:03:33.391Z,19.40
2019-05-22T12:06:00.922Z,19.70
2019-05-22T12:08:28.604Z,19.60
2019-05-22T12:10:56.168Z,19.60
2019-05-22T12:13:23.715Z,19.10
2019-05-22T12:15:51.289Z,19.00
2019-05-22T12:18:18.843Z,18.80
2019-05-22T12:20:46.462Z,18.80
2019-05-22T12:23:13.998Z,19.20
2019-05-22T12:25:41.567Z,19.70
2019-05-22T12:28:09.917Z,19.90
2019-05-22T12:30:37.484Z,19.90
2019-05-22T12:33:12.659Z,20.50
2019-05-22T12:35:32.859Z,20.40
2019-05-22T12:38:01.234Z,20.90
2019-05-22T12:40:28.426Z,20.60
2019-05-22T12:42:55.983Z,20.40
2019-05-22T12:45:23.523Z,20.50
2019-05-22T12:47:51.056Z,19.90
2019-05-22T12:50:18.622Z,20.30
2019-05-22T12:52:47.080Z,20.80
2019-05-22T12:55:14.635Z,20.30
2019-05-22T12:57:42.159Z,21.20
2019-05-22T13:00:10.479Z,21.80
2019-05-22T13:02:41.957Z,21.80
2019-05-22T13:05:05.620Z,21.40
2019-05-22T13:07:33.179Z,21.60
2019-05-22T13:10:00.774Z,21.20
2019-05-22T13:12:28.310Z,21.20
2019-05-22T13:15:09.256Z,21.20
2019-05-22T13:17:23.449Z,21.10
2019-05-22T13:19:51.043Z,20.70
2019-05-22T13:22:18.596Z,20.40
2019-05-22T13:24:46.128Z,20.20
2019-05-22T13:27:13.685Z,20.50
2019-05-22T13:29:41.277Z,20.50
2019-05-22T13:32:08.837Z,21.40
2019-05-22T13:34:36.378Z,21.60
2019-05-22T13:37:03.927Z,21.70
2019-05-22T13:39:31.487Z,22.90
2019-05-22T13:41:59.057Z,23.20
2019-05-22T13:44:26.625Z,22.90
2019-05-22T13:46:54.163Z,22.10
2019-05-22T13:49:21.731Z,21.20
2019-05-22T13:51:50.268Z,21.70
2019-05-22T13:54:17.825Z,22.50
2019-05-22T13:56:46.125Z,23.50
2019-05-22T13:59:13.653Z,23.50
2019-05-22T14:01:42.083Z,24.80
2019-05-22T14:04:09.647Z,24.70
2019-05-22T14:06:37.208Z,24.70
2019-05-22T14:09:04.928Z,24.50
2019-05-22T14:11:32.495Z,25.10
2019-05-22T14:14:00.031Z,25.90
2019-05-22T14:16:27.713Z,25.50
2019-05-22T14:18:55.248Z,25.50
2019-05-22T14:21:22.802Z,26.40
2019-05-22T14:23:50.338Z,25.30
2019-05-22T14:26:18.675Z,22.70
2019-05-22T14:28:46.428Z,22.70
2019-05-22T14:31:14.035Z,24.30
2019-05-22T14:33:41.603Z,25.70
2019-05-22T14:36:09.139Z,26.20
2019-05-22T14:38:37.172Z,26.30
2019-05-22T14:41:04.707Z,26.60
2019-05-22T14:43:32.378Z,26.00
2019-05-22T14:45:59.919Z,25.70
2019-05-22T14:48:27.555Z,26.20
2019-05-22T14:50:55.116Z,26.40
2019-05-22T14:53:23.412Z,26.60
2019-05-22T14:55:51.293Z,26.50
2019-05-22T14:58:18.977Z,27.00
2019-05-22T15:00:46.495Z,27.10
2019-05-22T15:03:14.053Z,26.60
2019-05-22T15:05:41.605Z,26.60
2019-05-22T15:08:09.155Z,26.00
2019-05-22T15:10:36.735Z,26.70
2019-05-22T15:13:04.291Z,28.30
2019-05-22T15:15:31.820Z,28.20
2019-05-22T15:17:59.380Z,27.80
2019-05-22T15:20:26.924Z,28.60
2019-05-22T15:22:56.136Z,29.90
2019-05-22T15:25:22.110Z,29.30
2019-05-22T15:27:49.668Z,29.90
2019-05-22T15:30:17.206Z,29.70
2019-05-22T15:32:45.141Z,29.40
2019-05-22T15:35:12.666Z,29.30
2019-05-22T15:37:41.000Z,28.30
2019-05-22T15:40:08.545Z,28.30
2019-05-22T15:42:37.030Z,27.70
2019-05-22T15:45:05.481Z,27.00
2019-05-22T15:47:52.645Z,25.90
2019-05-22T15:50:00.626Z,25.80
2019-05-22T15:52:28.192Z,25.50
2019-05-22T15:54:55.778Z,25.40
2019-05-22T15:57:23.319Z,25.90
2019-05-22T15:59:50.899Z,25.30
2019-05-22T16:02:21.662Z,25.00
2019-05-22T16:04:46.032Z,26.00
2019-05-22T16:07:13.568Z,25.40
2019-05-22T16:09:41.122Z,24.10
2019-05-22T16:12:08.715Z,23.30
2019-05-22T16:14:36.284Z,24.40
2019-05-22T16:17:03.826Z,24.10
2019-05-22T16:19:31.558Z,26.00
2019-05-22T16:21:59.023Z,25.20
2019-05-22T16:24:27.403Z,24.90
2019-05-22T16:26:55.694Z,25.90
2019-05-22T16:29:23.222Z,25.90
2019-05-22T16:31:51.566Z,25.60
2019-05-22T16:34:19.095Z,25.60
2019-05-22T16:36:46.655Z,26.00
2019-05-22T16:39:14.189Z,25.80
2019-05-22T16:41:41.760Z,25.90
2019-05-22T16:44:09.288Z,25.30
2019-05-22T16:46:36.842Z,25.30
2019-05-22T16:49:04.377Z,24.20
2019-05-22T16:51:31.939Z,22.60
2019-05-22T16:54:00.420Z,22.00
2019-05-22T16:56:27.962Z,20.80
2019-05-22T16:58:55.549Z,20.00
2019-05-22T17:01:23.108Z,20.10
2019-05-22T17:03:51.564Z,19.90
2019-05-22T17:06:19.099Z,19.90
2019-05-22T17:08:46.653Z,19.50
2019-05-22T17:11:14.219Z,19.50
2019-05-22T17:13:41.807Z,19.50
2019-05-22T17:16:09.350Z,19.30
2019-05-22T17:18:46.517Z,19.30
2019-05-22T17:21:04.515Z,19.30
2019-05-22T17:23:32.055Z,18.90
2019-05-22T17:25:59.619Z,18.70
2019-05-22T17:28:27.247Z,18.50
2019-05-22T17:30:54.786Z,18.70
2019-05-22T17:33:22.316Z,18.70
2019-05-22T17:35:49.908Z,18.60
2019-05-22T17:38:17.453Z,18.60
2019-05-22T17:40:45.026Z,18.40
2019-05-22T17:43:12.569Z,18.40
2019-05-22T17:45:41.155Z,18.20
2019-05-22T17:48:08.742Z,18.20
2019-05-22T17:50:36.314Z,18.10
2019-05-22T17:53:03.868Z,18.00
2019-05-22T17:55:31.442Z,18.00
2019-05-22T17:57:58.990Z,18.00
2019-05-22T18:00:27.376Z,17.90
2019-05-22T18:02:54.908Z,17.80
2019-05-22T18:05:22.444Z,17.70
2019-05-22T18:07:50.773Z,17.70
2019-05-22T18:10:18.306Z,17.70
2019-05-22T18:12:45.874Z,17.60
2019-05-22T18:15:13.426Z,17.50
2019-05-22T18:17:41.005Z,17.40
2019-05-22T18:20:08.539Z,17.40
2019-05-22T18:22:36.158Z,17.20
2019-05-22T18:25:03.676Z,17.20
2019-05-22T18:27:31.239Z,17.20
2019-05-22T18:29:58.771Z,17.30
2019-05-22T18:32:26.340Z,17.30
2019-05-22T18:34:53.891Z,17.20
2019-05-22T18:37:21.442Z,17.10
2019-05-22T18:39:49.004Z,17.00
2019-05-22T18:42:16.587Z,16.90
2019-05-22T18:44:45.114Z,16.50
2019-05-22T18:47:12.656Z,16.10
2019-05-22T18:49:40.268Z,15.90
2019-05-22T18:52:08.847Z,15.60
2019-05-22T18:54:36.452Z,15.50
2019-05-22T18:57:04.039Z,15.40
2019-05-22T18:59:31.683Z,15.30
2019-05-22T19:01:59.270Z,15.10
2019-05-22T19:04:26.824Z,14.90
2019-05-22T19:06:55.957Z,14.70
2019-05-22T19:09:21.995Z,14.60
2019-05-22T19:11:49.529Z,14.40
2019-05-22T19:14:17.084Z,14.30
2019-05-22T19:16:44.928Z,14.20
2019-05-22T19:19:12.491Z,14.10
2019-05-22T19:21:40.024Z,14.00
2019-05-22T19:24:07.592Z,14.00
2019-05-22T19:26:35.129Z,13.90
2019-05-22T19:29:03.133Z,13.70
2019-05-22T19:31:30.767Z,13.70
2019-05-22T19:33:58.319Z,13.50
2019-05-22T19:36:25.849Z,13.50
2019-05-22T19:38:53.382Z,13.50
2019-05-22T19:41:21.915Z,13.60
2019-05-22T19:43:49.458Z,13.50
2019-05-22T19:46:17.157Z,13.40
2019-05-22T19:48:45.707Z,13.30
2019-05-22T19:51:13.314Z,13.30
2019-05-22T19:53:40.888Z,13.10
2019-05-22T19:56:09.451Z,13.10
2019-05-22T19:58:37.008Z,13.00
2019-05-22T20:01:04.554Z,12.90
2019-05-22T20:03:32.104Z,12.90
2019-05-22T20:05:59.663Z,12.80
2019-05-22T20:08:27.215Z,12.80
2019-05-22T20:10:54.756Z,12.70
2019-05-22T20:13:22.311Z,12.70
2019-05-22T20:15:50.863Z,12.70
2019-05-22T20:18:18.422Z,12.70
2019-05-22T20:20:45.956Z,12.60
2019-05-22T20:23:13.495Z,12.50
2019-05-22T20:25:41.060Z,12.40
2019-05-22T20:28:08.596Z,12.40
2019-05-22T20:30:36.169Z,12.30
2019-05-22T20:33:03.740Z,12.30
2019-05-22T20:35:31.287Z,12.20
2019-05-22T20:38:00.442Z,12.30
2019-05-22T20:40:27.204Z,12.10
2019-05-22T20:42:54.742Z,12.10
2019-05-22T20:45:22.299Z,12.10
2019-05-22T20:47:49.844Z,12.00
2019-05-22T20:50:17.448Z,11.80
2019-05-22T20:52:44.987Z,11.60
2019-05-22T20:55:12.557Z,11.60
2019-05-22T20:57:40.088Z,11.50
2019-05-22T21:00:08.477Z,11.40
2019-05-22T21:02:36.011Z,11.20
2019-05-22T21:05:03.581Z,11.20
2019-05-22T21:07:31.111Z,11.30
2019-05-22T21:09:59.410Z,11.40
2019-05-22T21:12:26.977Z,11.30
2019-05-22T21:14:54.511Z,11.20
2019-05-22T21:17:22.839Z,11.20
2019-05-22T21:19:50.399Z,11.20
2019-05-22T21:22:17.930Z,11.30
2019-05-22T21:24:45.500Z,11.20
2019-05-22T21:27:13.057Z,11.20
2019-05-22T21:29:40.606Z,11.20
2019-05-22T21:32:08.214Z,11.20
2019-05-22T21:34:35.763Z,11.20
2019-05-22T21:37:04.068Z,11.30
2019-05-22T21:39:31.635Z,11.30
2019-05-22T21:41:59.164Z,11.30
2019-05-22T21:44:27.466Z,11.20
2019-05-22T21:46:55.026Z,11.20
2019-05-22T21:49:22.552Z,11.00
2019-05-22T21:51:50.109Z,11.00
2019-05-22T21:54:17.634Z,11.10
2019-05-22T21:56:45.191Z,11.10
2019-05-22T21:59:12.885Z,11.10
2019-05-22T22:01:51.192Z,11.10
2019-05-22T22:04:19.319Z,11.10
2019-05-22T22:06:46.888Z,11.00
2019-05-22T22:09:14.423Z,11.00
2019-05-22T22:11:42.016Z,10.90
2019-05-22T22:14:09.547Z,10.90
2019-05-22T22:16:37.108Z,11.00
2019-05-22T22:19:04.643Z,10.90
2019-05-22T22:21:32.199Z,10.90
2019-05-22T22:23:59.761Z,10.80
2019-05-22T22:26:27.304Z,10.70
2019-05-22T22:28:54.882Z,10.50
2019-05-22T22:31:22.446Z,10.30
2019-05-22T22:33:49.979Z,10.40
2019-05-22T22:36:17.531Z,10.40
2019-05-22T22:38:45.059Z,10.50
2019-05-22T22:41:13.388Z,10.50
2019-05-22T22:43:40.919Z,10.40
2019-05-22T22:46:14.081Z,10.30
2019-05-22T22:48:41.606Z,10.20
2019-05-22T22:51:09.168Z,10.30
2019-05-22T22:53:36.706Z,10.20
2019-05-22T22:56:04.287Z,10.10
2019-05-22T22:58:31.809Z,9.90
2019-05-22T23:00:59.375Z,9.80
2019-05-22T23:03:26.909Z,9.70
2019-05-22T23:05:54.549Z,9.60
2019-05-22T23:08:22.987Z,9.70
2019-05-22T23:10:50.519Z,9.70
2019-05-22T23:13:18.066Z,9.60
2019-05-22T23:15:45.595Z,9.60
2019-05-22T23:18:14.213Z,9.30
2019-05-22T23:20:41.263Z,9.50
2019-05-22T23:23:08.321Z,9.40
2019-05-22T23:25:35.850Z,9.40
2019-05-22T23:28:03.407Z,9.40
2019-05-22T23:30:30.943Z,9.30
2019-05-22T23:32:59.498Z,9.20
2019-05-22T23:35:27.027Z,9.20
2019-05-22T23:37:54.586Z,9.20
2019-05-22T23:40:23.005Z,9.10
2019-05-22T23:42:50.558Z,9.10
2019-05-22T23:45:18.855Z,9.10
2019-05-22T23:48:01.295Z,9.00
2019-05-22T23:50:28.822Z,9.10
2019-05-22T23:52:56.385Z,9.20
2019-05-22T23:55:23.925Z,9.10
2019-05-22T23:57:51.471Z,9.00
